Time;durP1;ratioP1;P1;durP2;ratioP2;P2;SDS_P1;SDS_P2;PMS_P1;PMS_P2;Temp;Humidity;BMP_temperature;BMP_pressure;BME280_temperature;BME280_humidity;BME280_pressure;Samples;Min_cycle;Max_cycle;Signal;HPM_P1;HPM_P2
2023/08/11 00:01:14;;;;;;;11.93;3.42;;;16.30;99.90;;;;;;5015859;28;20030;-76
2023/08/11 00:03:40;;;;;;;12.27;4.47;;;16.30;99.90;;;;;;5013718;28;20101;-76
2023/08/11 00:06:07;;;;;;;12.40;4.05;;;16.30;99.90;;;;;;5022652;28;20021;-76
2023/08/11 00:08:34;;;;;;;8.82;3.97;;;16.30;99.90;;;;;;5055229;23;20049;-68
2023/08/11 00:10:59;;;;;;;13.45;3.65;;;16.30;99.90;;;;;;5047570;28;20034;-68
2023/08/11 00:13:25;;;;;;;11.75;3.47;;;16.30;99.90;;;;;;5035006;28;20083;-68
2023/08/11 00:15:50;;;;;;;12.88;3.90;;;16.30;99.90;;;;;;5032567;28;20068;-68
2023/08/11 00:18:16;;;;;;;14.20;4.18;;;16.30;99.90;;;;;;5026480;28;20032;-69
2023/08/11 00:20:42;;;;;;;11.95;3.50;;;16.30;99.90;;;;;;5040897;28;20076;-69
2023/08/11 00:23:07;;;;;;;9.45;3.70;;;16.30;99.90;;;;;;5036601;28;20500;-69
2023/08/11 00:25:33;;;;;;;11.95;3.42;;;16.30;99.90;;;;;;5033379;28;20481;-69
2023/08/11 00:28:01;;;;;;;7.80;2.90;;;16.30;99.90;;;;;;5049245;28;20617;-69
2023/08/11 00:30:27;;;;;;;8.90;3.30;;;16.30;99.90;;;;;;5039523;28;20025;-69
2023/08/11 00:32:52;;;;;;;15.35;3.17;;;16.30;99.90;;;;;;5042108;28;20385;-69
2023/08/11 00:35:18;;;;;;;7.10;3.28;;;16.40;99.90;;;;;;5035041;28;20029;-69
2023/08/11 00:37:44;;;;;;;9.98;3.40;;;16.40;99.90;;;;;;5031533;28;20083;-69
2023/08/11 00:40:11;;;;;;;12.07;2.17;;;16.40;99.90;;;;;;5044828;28;20025;-69
2023/08/11 00:42:37;;;;;;;8.27;3.55;;;16.40;99.90;;;;;;5037806;28;20009;-69
2023/08/11 00:45:03;;;;;;;8.40;3.35;;;16.40;99.90;;;;;;5036328;28;20416;-69
2023/08/11 00:47:29;;;;;;;15.40;3.35;;;16.40;99.90;;;;;;5027137;28;20029;-69
2023/08/11 00:49:55;;;;;;;8.43;3.13;;;16.40;99.90;;;;;;5033065;28;20075;-69
2023/08/11 00:52:21;;;;;;;5.78;2.80;;;16.40;99.90;;;;;;5034671;28;20033;-69
2023/08/11 00:54:47;;;;;;;10.57;3.22;;;16.40;99.90;;;;;;5048514;28;20387;-69
2023/08/11 00:57:13;;;;;;;7.07;2.65;;;16.40;99.90;;;;;;5043385;28;20079;-69
2023/08/11 00:59:39;;;;;;;8.05;2.45;;;16.40;99.90;;;;;;5042320;28;20117;-69
2023/08/11 01:02:07;;;;;;;5.43;2.40;;;16.40;99.90;;;;;;5032085;28;20168;-69
2023/08/11 01:04:33;;;;;;;5.65;2.50;;;16.40;99.90;;;;;;5031668;28;20492;-69
2023/08/11 01:07:35;;;;;;;7.03;2.40;;;16.40;99.90;;;;;;5033557;28;20028;-69
2023/08/11 01:10:33;;;;;;;15.05;3.33;;;16.40;99.90;;;;;;5028573;28;20021;-69
2023/08/11 01:13:01;;;;;;;6.85;2.40;;;16.40;99.90;;;;;;5013885;28;20037;-69
2023/08/11 01:15:31;;;;;;;9.38;2.45;;;16.40;99.90;;;;;;5027290;28;20086;-69
2023/08/11 01:17:58;;;;;;;7.63;2.90;;;16.40;99.90;;;;;;5041521;28;20029;-69
2023/08/11 01:20:23;;;;;;;13.68;2.95;;;16.40;99.90;;;;;;5042598;28;20492;-69
2023/08/11 01:22:56;;;;;;;5.68;2.85;;;16.50;99.90;;;;;;5042406;28;20021;-69
2023/08/11 01:25:23;;;;;;;6.45;2.35;;;16.50;99.90;;;;;;5033490;28;20112;-69
2023/08/11 01:27:56;;;;;;;8.73;3.30;;;16.50;99.90;;;;;;5047349;28;20033;-69
2023/08/11 01:30:23;;;;;;;8.60;3.85;;;16.50;99.90;;;;;;5030149;28;20563;-69
2023/08/11 01:32:49;;;;;;;11.55;3.92;;;16.50;99.90;;;;;;5039029;28;20380;-69
2023/08/11 01:35:14;;;;;;;14.02;5.90;;;16.50;99.90;;;;;;5031396;28;20025;-69
2023/08/11 01:37:40;;;;;;;7.97;2.33;;;16.50;99.90;;;;;;5027882;28;20484;-69
2023/08/11 01:40:13;;;;;;;9.90;3.80;;;16.50;99.90;;;;;;5029222;28;20045;-69
2023/08/11 01:42:41;;;;;;;9.65;3.17;;;16.50;99.90;;;;;;5030513;28;20413;-69
2023/08/11 01:45:11;;;;;;;4.82;2.30;;;16.50;99.90;;;;;;5031028;28;20457;-69
2023/08/11 01:47:39;;;;;;;9.13;2.60;;;16.50;99.90;;;;;;5031990;28;20021;-69
2023/08/11 01:50:06;;;;;;;10.20;2.58;;;16.50;99.90;;;;;;5040494;28;20033;-70
2023/08/11 01:52:34;;;;;;;11.35;2.22;;;16.50;99.90;;;;;;5040488;28;20489;-69
2023/08/11 01:55:00;;;;;;;13.35;2.85;;;16.50;99.90;;;;;;5024393;28;20389;-69
2023/08/11 01:57:26;;;;;;;7.30;2.47;;;16.50;99.90;;;;;;5024569;28;20028;-69
2023/08/11 01:59:52;;;;;;;7.25;2.10;;;16.40;99.90;;;;;;5023156;28;20021;-69
2023/08/11 02:02:18;;;;;;;25.02;3.10;;;16.50;99.90;;;;;;5022711;28;20060;-69
2023/08/11 02:04:45;;;;;;;13.65;4.03;;;16.50;99.90;;;;;;5012187;28;20021;-69
2023/08/11 02:07:10;;;;;;;8.07;2.20;;;16.50;99.90;;;;;;5028394;28;20036;-69
2023/08/11 02:09:36;;;;;;;12.40;2.10;;;16.50;99.90;;;;;;5028473;28;20034;-69
2023/08/11 02:12:02;;;;;;;7.35;2.92;;;16.50;99.90;;;;;;5026057;28;20485;-69
2023/08/11 02:14:27;;;;;;;15.45;2.75;;;16.50;99.90;;;;;;5024775;28;20045;-69
2023/08/11 02:16:53;;;;;;;7.25;2.42;;;16.50;99.90;;;;;;5023124;28;20359;-69
2023/08/11 02:19:19;;;;;;;7.13;2.03;;;16.50;99.90;;;;;;5031797;28;20531;-69
2023/08/11 02:21:44;;;;;;;10.40;3.00;;;16.50;99.90;;;;;;5033985;28;20546;-69
2023/08/11 02:24:10;;;;;;;7.55;2.50;;;16.60;99.90;;;;;;5030405;28;20454;-69
2023/08/11 02:26:35;;;;;;;7.47;2.22;;;16.50;99.90;;;;;;5033038;28;20029;-69
2023/08/11 02:29:03;;;;;;;7.70;2.72;;;16.60;99.90;;;;;;5023350;28;20509;-69
2023/08/11 02:31:30;;;;;;;9.02;3.13;;;16.50;99.90;;;;;;5030587;28;20070;-69
2023/08/11 02:33:56;;;;;;;8.07;2.92;;;16.50;99.90;;;;;;5037008;28;20113;-69
2023/08/11 02:36:23;;;;;;;5.30;2.65;;;16.50;99.90;;;;;;5037014;28;20106;-69
2023/08/11 02:38:49;;;;;;;7.00;3.17;;;16.50;99.90;;;;;;5033634;28;20025;-69
2023/08/11 02:41:15;;;;;;;8.18;2.33;;;16.60;99.90;;;;;;5051528;28;20021;-69
2023/08/11 02:43:40;;;;;;;11.43;2.60;;;16.60;99.90;;;;;;5034446;28;20021;-70
2023/08/11 02:46:06;;;;;;;10.40;3.65;;;16.60;99.90;;;;;;5030606;28;20021;-70
2023/08/11 02:48:33;;;;;;;5.43;2.40;;;16.50;99.90;;;;;;5041150;28;20093;-70
2023/08/11 02:51:01;;;;;;;5.88;2.42;;;16.50;99.90;;;;;;5035018;28;20392;-70
2023/08/11 02:53:26;;;;;;;5.05;1.73;;;16.60;99.90;;;;;;5035629;28;20503;-70
2023/08/11 02:55:52;;;;;;;15.50;4.40;;;16.50;99.90;;;;;;5042197;28;20025;-70
2023/08/11 02:58:17;;;;;;;13.27;4.55;;;16.50;99.90;;;;;;5040200;28;20041;-70
2023/08/11 03:00:43;;;;;;;12.40;3.15;;;16.40;99.90;;;;;;5029709;28;20025;-69
2023/08/11 03:03:09;;;;;;;14.65;2.70;;;16.40;99.90;;;;;;5031022;28;20028;-69
2023/08/11 03:05:35;;;;;;;8.73;2.72;;;16.40;99.90;;;;;;5029879;28;20017;-69
2023/08/11 03:08:00;;;;;;;13.88;3.08;;;16.40;99.90;;;;;;5030151;28;20025;-69
2023/08/11 03:10:26;;;;;;;13.07;3.63;;;16.50;99.90;;;;;;5043635;28;20029;-69
2023/08/11 03:12:51;;;;;;;7.78;2.28;;;16.50;99.90;;;;;;5040682;28;20323;-69
2023/08/11 03:15:18;;;;;;;6.10;1.63;;;16.50;99.90;;;;;;5034910;28;20040;-69
2023/08/11 03:17:43;;;;;;;4.97;3.10;;;16.50;99.90;;;;;;5030424;28;20033;-69
2023/08/11 03:20:12;;;;;;;9.25;2.40;;;16.60;99.90;;;;;;5030341;28;20036;-69
2023/08/11 03:22:39;;;;;;;8.85;2.10;;;16.60;99.90;;;;;;5030016;28;20041;-69
2023/08/11 03:25:07;;;;;;;7.72;1.95;;;16.60;99.90;;;;;;5029774;28;20442;-69
2023/08/11 03:27:34;;;;;;;7.78;2.20;;;16.60;99.90;;;;;;5029980;28;20033;-69
2023/08/11 03:29:59;;;;;;;8.23;2.30;;;16.60;99.90;;;;;;5041754;28;20025;-69
2023/08/11 03:32:25;;;;;;;12.43;2.60;;;16.60;99.90;;;;;;5038425;28;20366;-69
2023/08/11 03:34:50;;;;;;;9.07;2.80;;;16.60;99.90;;;;;;5042726;28;20484;-69
2023/08/11 03:37:16;;;;;;;9.50;2.40;;;16.60;99.90;;;;;;5033549;28;20029;-69
2023/08/11 03:39:41;;;;;;;8.70;2.55;;;16.60;99.90;;;;;;5038509;28;20076;-69
2023/08/11 03:42:07;;;;;;;8.32;2.65;;;16.60;99.90;;;;;;5030086;28;20548;-69
2023/08/11 03:44:33;;;;;;;8.98;4.20;;;16.60;99.90;;;;;;5030300;28;20049;-69
2023/08/11 03:46:58;;;;;;;6.75;2.92;;;16.50;99.90;;;;;;5035938;28;20025;-69
2023/08/11 03:49:24;;;;;;;11.32;3.30;;;16.60;99.90;;;;;;5033734;28;20401;-69
2023/08/11 03:51:49;;;;;;;10.38;3.10;;;16.60;99.90;;;;;;5031902;28;20041;-69
2023/08/11 03:54:15;;;;;;;7.20;4.18;;;16.60;99.90;;;;;;5030778;28;20028;-69
2023/08/11 03:56:40;;;;;;;14.55;5.10;;;16.60;99.90;;;;;;5029761;28;20029;-69
2023/08/11 03:59:06;;;;;;;12.15;5.05;;;16.60;99.90;;;;;;5028541;28;20026;-69
2023/08/11 04:01:31;;;;;;;12.27;3.08;;;16.60;99.90;;;;;;5027735;28;20527;-69
2023/08/11 04:03:57;;;;;;;9.90;2.45;;;16.60;99.90;;;;;;5034637;28;20045;-69
2023/08/11 04:06:28;;;;;;;15.65;3.38;;;16.60;99.90;;;;;;5034206;28;20104;-69
2023/08/11 04:08:54;;;;;;;6.43;1.83;;;16.60;99.90;;;;;;5050493;28;20048;-69
2023/08/11 04:11:19;;;;;;;9.95;2.90;;;16.70;99.90;;;;;;5029766;28;20500;-69
2023/08/11 04:13:45;;;;;;;14.00;2.55;;;16.70;99.90;;;;;;5037636;28;20069;-69
2023/08/11 04:16:11;;;;;;;10.18;2.22;;;16.70;99.90;;;;;;5039429;28;20119;-69
2023/08/11 04:18:36;;;;;;;7.80;2.95;;;16.70;99.90;;;;;;5044574;28;20041;-69
2023/08/11 04:21:02;;;;;;;14.95;3.95;;;16.70;99.90;;;;;;5033710;28;20017;-69
2023/08/11 04:23:27;;;;;;;7.57;2.42;;;16.70;99.90;;;;;;5033822;28;20404;-69
2023/08/11 04:25:53;;;;;;;11.35;2.72;;;16.70;99.90;;;;;;5041260;28;20444;-69
2023/08/11 04:28:19;;;;;;;6.50;3.78;;;16.70;99.90;;;;;;5031075;28;20026;-69
2023/08/11 04:30:44;;;;;;;7.43;2.90;;;16.70;99.90;;;;;;5026263;28;20032;-69
2023/08/11 04:33:12;;;;;;;4.90;2.05;;;16.80;99.90;;;;;;5032611;28;20060;-69
2023/08/11 04:35:38;;;;;;;7.43;2.58;;;16.80;99.90;;;;;;5030640;28;20026;-71
2023/08/11 04:38:04;;;;;;;6.03;2.30;;;16.80;99.90;;;;;;5032394;28;20025;-69
2023/08/11 04:40:29;;;;;;;6.10;2.03;;;16.80;99.90;;;;;;5040036;28;20392;-69
2023/08/11 04:42:55;;;;;;;9.35;3.00;;;16.80;99.90;;;;;;5034898;28;20054;-69
2023/08/11 04:45:21;;;;;;;4.40;2.00;;;16.80;99.90;;;;;;5032610;28;20030;-69
2023/08/11 04:47:47;;;;;;;6.68;1.95;;;16.80;99.90;;;;;;5032336;28;20029;-69
2023/08/11 04:50:12;;;;;;;6.28;2.47;;;16.80;99.90;;;;;;5032714;28;20064;-69
2023/08/11 04:52:38;;;;;;;7.43;2.13;;;16.80;99.90;;;;;;5028898;28;20029;-69
2023/08/11 04:55:07;;;;;;;12.57;2.15;;;16.90;99.90;;;;;;5030337;28;20171;-69
2023/08/11 04:57:33;;;;;;;6.50;2.45;;;16.90;99.90;;;;;;5049945;28;20097;-69
2023/08/11 04:59:59;;;;;;;7.43;2.45;;;16.90;99.90;;;;;;5045346;28;20029;-69
2023/08/11 05:02:25;;;;;;;5.68;1.88;;;16.90;99.90;;;;;;5033790;28;20025;-70
2023/08/11 05:04:50;;;;;;;11.38;4.43;;;16.90;99.90;;;;;;5037430;28;20025;-70
2023/08/11 05:07:16;;;;;;;8.68;4.03;;;16.90;99.90;;;;;;5040708;23;20124;-72
2023/08/11 05:09:41;;;;;;;7.28;2.47;;;17.00;99.90;;;;;;5031108;28;20081;-72
2023/08/11 05:12:07;;;;;;;7.00;2.00;;;17.00;99.90;;;;;;5026662;28;20140;-70
2023/08/11 05:14:33;;;;;;;9.55;2.70;;;17.10;99.90;;;;;;5021557;28;20037;-70
2023/08/11 05:16:58;;;;;;;5.10;1.60;;;17.10;99.90;;;;;;5024863;28;20235;-70
2023/08/11 05:19:25;;;;;;;8.77;2.30;;;17.10;99.90;;;;;;5032990;28;20120;-70
2023/08/11 05:21:51;;;;;;;10.07;2.38;;;17.10;99.90;;;;;;5063867;22;20140;-75
2023/08/11 05:24:16;;;;;;;9.73;3.50;;;17.10;99.90;;;;;;5032753;28;20117;-76
2023/08/11 05:26:42;;;;;;;13.23;8.05;;;17.20;99.90;;;;;;5042506;28;20021;-75
2023/08/11 05:29:07;;;;;;;15.82;9.15;;;17.20;99.90;;;;;;5045688;28;20513;-75
2023/08/11 05:31:33;;;;;;;13.15;7.75;;;17.30;99.90;;;;;;5051912;28;20539;-75
2023/08/11 05:33:59;;;;;;;25.05;11.35;;;17.30;99.90;;;;;;5052625;28;20071;-76
2023/08/11 05:36:25;;;;;;;30.58;16.60;;;17.30;99.90;;;;;;5051509;28;20032;-75
2023/08/11 05:38:50;;;;;;;28.05;11.50;;;17.40;99.90;;;;;;5033684;28;20033;-76
2023/08/11 05:41:16;;;;;;;39.85;22.73;;;17.40;99.90;;;;;;5047029;28;20399;-75
2023/08/11 05:43:42;;;;;;;15.45;4.20;;;17.50;99.90;;;;;;5051440;28;20102;-75
2023/08/11 05:46:07;;;;;;;11.48;4.47;;;17.50;99.90;;;;;;5054981;28;20025;-75
2023/08/11 05:48:35;;;;;;;15.07;4.50;;;17.60;99.90;;;;;;5047444;28;20060;-76
2023/08/11 05:51:02;;;;;;;29.17;10.18;;;17.70;99.90;;;;;;5038224;28;20121;-76
2023/08/11 05:53:27;;;;;;;18.63;10.43;;;17.70;99.90;;;;;;5039590;28;20035;-77
2023/08/11 05:55:53;;;;;;;18.42;5.28;;;17.70;99.90;;;;;;5053971;28;20028;-76
2023/08/11 05:58:18;;;;;;;6.25;3.22;;;17.80;99.90;;;;;;5048240;28;20048;-76
2023/08/11 06:00:44;;;;;;;18.58;5.35;;;17.80;99.90;;;;;;5048237;28;20027;-76
2023/08/11 06:03:09;;;;;;;7.90;2.80;;;17.80;99.90;;;;;;5049186;28;20101;-77
2023/08/11 06:05:35;;;;;;;7.30;2.33;;;17.80;99.90;;;;;;5051173;28;20183;-75
2023/08/11 06:08:00;;;;;;;8.20;2.55;;;17.80;99.90;;;;;;5054027;28;20055;-75
2023/08/11 06:10:26;;;;;;;7.07;2.55;;;17.90;99.90;;;;;;5050067;28;20038;-76
2023/08/11 06:12:52;;;;;;;14.10;5.13;;;18.00;99.90;;;;;;5045502;28;20047;-76
2023/08/11 06:15:18;;;;;;;9.45;4.05;;;18.20;99.90;;;;;;5041114;28;20384;-78
2023/08/11 06:17:49;;;;;;;12.13;3.30;;;18.30;99.90;;;;;;5049055;28;20040;-79
2023/08/11 06:20:15;;;;;;;11.23;2.53;;;18.50;99.90;;;;;;5049078;28;20033;-79
2023/08/11 06:22:41;;;;;;;11.23;2.63;;;18.60;99.90;;;;;;5058613;28;20025;-79
2023/08/11 06:25:07;;;;;;;10.77;3.75;;;18.90;99.90;;;;;;5052789;28;20029;-79
2023/08/11 06:27:33;;;;;;;12.48;2.60;;;19.00;99.90;;;;;;5058056;28;20041;-79
2023/08/11 06:29:58;;;;;;;8.70;2.70;;;19.20;99.90;;;;;;5045912;28;20727;-78
2023/08/11 06:32:24;;;;;;;12.18;3.50;;;19.30;99.90;;;;;;5053143;28;20548;-78
2023/08/11 06:34:49;;;;;;;9.70;3.70;;;19.40;99.80;;;;;;5047377;28;20021;-76
2023/08/11 06:37:16;;;;;;;7.15;2.92;;;19.40;99.40;;;;;;5050222;28;20025;-77
2023/08/11 06:39:42;;;;;;;6.68;2.20;;;19.60;99.60;;;;;;5047245;28;20059;-78
2023/08/11 06:42:08;;;;;;;10.73;2.42;;;19.70;99.40;;;;;;5045988;28;20100;-78
2023/08/11 06:44:33;;;;;;;16.50;2.85;;;19.70;99.00;;;;;;5048134;28;20029;-77
2023/08/11 06:46:59;;;;;;;8.38;2.95;;;19.70;99.20;;;;;;5045394;28;20074;-79
2023/08/11 06:49:24;;;;;;;10.00;3.38;;;19.90;99.10;;;;;;5044182;28;20029;-79
2023/08/11 06:51:50;;;;;;;10.30;3.22;;;20.00;99.00;;;;;;5050765;28;20032;-79
2023/08/11 06:54:15;;;;;;;7.20;2.60;;;20.10;98.70;;;;;;5045557;28;20044;-78
2023/08/11 06:56:41;;;;;;;4.28;2.10;;;20.20;98.70;;;;;;5053026;28;20075;-79
2023/08/11 06:59:07;;;;;;;21.02;2.60;;;20.20;98.80;;;;;;5050377;28;20036;-78
2023/08/11 07:01:33;;;;;;;12.45;3.28;;;20.30;98.60;;;;;;5053092;28;20033;-80
2023/08/11 07:03:58;;;;;;;6.75;2.85;;;20.50;98.40;;;;;;5045767;28;20267;-78
2023/08/11 07:06:24;;;;;;;11.88;3.72;;;20.50;98.30;;;;;;5039925;28;20056;-78
2023/08/11 07:08:49;;;;;;;12.88;3.55;;;20.60;98.40;;;;;;5051958;28;20021;-77
2023/08/11 07:11:15;;;;;;;12.98;3.63;;;20.70;98.30;;;;;;5052055;28;20021;-77
2023/08/11 07:13:41;;;;;;;10.60;3.88;;;20.80;98.20;;;;;;5047204;28;20036;-77
2023/08/11 07:16:07;;;;;;;10.20;4.93;;;20.90;98.20;;;;;;5046740;28;20384;-77
2023/08/11 07:18:32;;;;;;;13.73;5.90;;;21.00;97.70;;;;;;5046400;28;20136;-78
2023/08/11 07:20:58;;;;;;;23.52;10.30;;;21.20;97.90;;;;;;5054727;28;20439;-77
2023/08/11 07:23:23;;;;;;;32.85;19.92;;;21.40;97.60;;;;;;5048725;28;20029;-77
2023/08/11 07:25:49;;;;;;;17.13;7.97;;;21.40;97.30;;;;;;5048083;28;20056;-77
2023/08/11 07:28:14;;;;;;;20.77;10.43;;;21.50;97.40;;;;;;5049649;28;20029;-77
2023/08/11 07:30:40;;;;;;;17.52;10.45;;;21.60;97.30;;;;;;5055090;28;20483;-77
2023/08/11 07:33:05;;;;;;;13.90;4.90;;;21.70;97.30;;;;;;5047595;28;20145;-77
2023/08/11 07:35:31;;;;;;;10.65;6.03;;;21.80;96.90;;;;;;5051882;28;20021;-79
2023/08/11 07:37:57;;;;;;;10.95;5.03;;;21.80;96.90;;;;;;5047903;28;20323;-79
2023/08/11 07:40:22;;;;;;;7.50;3.65;;;21.90;96.60;;;;;;5048861;28;20029;-79
2023/08/11 07:42:48;;;;;;;14.32;6.25;;;22.00;96.70;;;;;;5042347;28;20033;-79
2023/08/11 07:45:13;;;;;;;11.13;6.15;;;22.00;96.60;;;;;;5046933;28;20124;-79
2023/08/11 07:47:39;;;;;;;11.45;5.60;;;21.90;96.60;;;;;;5051303;28;20123;-79
2023/08/11 07:50:06;;;;;;;11.27;4.88;;;22.10;96.40;;;;;;5050371;28;20043;-73
2023/08/11 07:52:31;;;;;;;10.30;4.78;;;22.30;96.40;;;;;;5051437;28;20031;-74
2023/08/11 07:54:57;;;;;;;17.90;5.70;;;22.40;96.30;;;;;;5050463;28;20377;-74
2023/08/11 07:57:23;;;;;;;13.45;4.15;;;22.50;96.30;;;;;;5050517;28;20487;-74
2023/08/11 07:59:48;;;;;;;12.90;4.75;;;22.60;96.00;;;;;;5052959;28;20462;-74
2023/08/11 08:02:15;;;;;;;10.07;5.57;;;22.70;95.80;;;;;;5052298;28;20028;-76
2023/08/11 08:04:41;;;;;;;10.55;4.63;;;22.80;95.80;;;;;;5052958;28;21314;-76
2023/08/11 08:07:07;;;;;;;15.27;5.45;;;22.90;95.90;;;;;;5054382;28;20025;-79
2023/08/11 08:09:33;;;;;;;8.95;4.65;;;23.00;94.90;;;;;;5050814;28;20025;-77
2023/08/11 08:11:59;;;;;;;9.35;4.15;;;23.00;95.20;;;;;;5050944;28;20502;-79
2023/08/11 08:14:25;;;;;;;8.02;3.70;;;23.10;95.30;;;;;;5050550;28;20082;-76
2023/08/11 08:16:51;;;;;;;11.10;4.25;;;23.20;94.80;;;;;;5054550;28;20115;-76
2023/08/11 08:19:18;;;;;;;13.98;5.53;;;23.30;95.00;;;;;;5053114;28;20033;-75
2023/08/11 08:21:46;;;;;;;10.52;4.90;;;23.50;94.70;;;;;;5043947;28;20040;-78
2023/08/11 08:24:14;;;;;;;7.70;3.72;;;23.50;94.30;;;;;;5048337;28;20503;-77
2023/08/11 08:26:40;;;;;;;8.73;3.60;;;23.60;94.40;;;;;;5053769;28;20024;-77
2023/08/11 08:29:05;;;;;;;7.25;3.70;;;23.70;94.30;;;;;;5039998;28;20483;-75
2023/08/11 08:31:32;;;;;;;7.05;4.13;;;23.80;93.80;;;;;;5049357;28;20032;-76
2023/08/11 08:33:58;;;;;;;12.10;4.28;;;23.80;93.70;;;;;;5053109;28;20051;-76
2023/08/11 08:36:23;;;;;;;7.30;4.32;;;23.80;92.80;;;;;;5048422;28;20057;-76
2023/08/11 08:38:49;;;;;;;8.98;4.45;;;23.80;93.20;;;;;;5053265;28;20029;-76
2023/08/11 08:41:18;;;;;;;7.13;2.88;;;23.80;93.10;;;;;;5046001;28;20029;-76
2023/08/11 08:43:43;;;;;;;5.97;3.08;;;23.90;93.10;;;;;;5054141;28;20052;-76
2023/08/11 08:46:11;;;;;;;8.73;3.05;;;24.10;92.30;;;;;;5050275;28;20052;-79
2023/08/11 08:48:45;;;;;;;4.18;2.45;;;24.00;91.30;;;;;;5050650;28;20029;-78
2023/08/11 08:51:12;;;;;;;4.75;2.50;;;23.90;91.50;;;;;;5051841;28;20040;-79
2023/08/11 08:53:37;;;;;;;4.53;2.72;;;24.00;91.70;;;;;;5046768;28;20072;-78
2023/08/11 08:56:04;;;;;;;5.03;2.70;;;24.20;91.60;;;;;;5049368;28;20048;-78
2023/08/11 08:58:31;;;;;;;6.35;2.65;;;24.30;91.20;;;;;;5050259;28;20573;-78
2023/08/11 09:01:01;;;;;;;11.55;3.47;;;24.50;91.80;;;;;;5050178;28;20033;-78
2023/08/11 09:03:30;;;;;;;3.67;2.72;;;24.80;91.20;;;;;;5051675;28;20032;-77
2023/08/11 09:05:56;;;;;;;8.35;3.35;;;24.80;91.40;;;;;;5050531;28;20029;-76
2023/08/11 09:08:21;;;;;;;5.68;2.97;;;24.80;90.60;;;;;;5051708;28;20063;-78
2023/08/11 09:10:47;;;;;;;5.40;2.45;;;24.90;90.80;;;;;;5053537;28;20024;-77
2023/08/11 09:13:15;;;;;;;6.50;2.88;;;24.90;90.40;;;;;;5057701;28;20028;-77
2023/08/11 09:15:41;;;;;;;2.20;1.80;;;24.80;90.00;;;;;;5055408;28;20025;-77
2023/08/11 09:18:07;;;;;;;3.70;2.78;;;24.70;89.10;;;;;;5057986;28;20506;-76
2023/08/11 09:20:36;;;;;;;2.50;1.20;;;24.70;89.90;;;;;;5053908;28;20024;-76
2023/08/11 09:23:04;;;;;;;6.68;1.75;;;24.80;89.80;;;;;;5049743;28;20509;-76
2023/08/11 09:25:31;;;;;;;4.07;1.75;;;24.70;90.40;;;;;;5050800;28;20430;-76
2023/08/11 09:27:58;;;;;;;4.72;2.28;;;24.80;90.00;;;;;;5052020;28;20025;-75
2023/08/11 09:30:28;;;;;;;3.28;1.95;;;24.90;88.80;;;;;;5048927;28;20056;-75
2023/08/11 09:32:54;;;;;;;5.18;2.38;;;24.80;88.40;;;;;;5046729;28;20036;-77
2023/08/11 09:35:26;;;;;;;2.35;1.67;;;24.80;88.70;;;;;;5046369;28;20036;-77
2023/08/11 09:37:53;;;;;;;4.28;1.52;;;24.80;89.30;;;;;;5051103;28;20025;-77
2023/08/11 09:40:19;;;;;;;8.30;1.67;;;25.00;87.10;;;;;;5047109;28;20738;-78
2023/08/11 09:42:45;;;;;;;1.70;1.17;;;25.00;87.30;;;;;;5047382;28;20539;-76
2023/08/11 09:45:10;;;;;;;2.97;1.70;;;25.10;87.20;;;;;;5050166;28;20098;-75
2023/08/11 09:47:36;;;;;;;4.03;1.80;;;25.10;86.20;;;;;;5051304;28;20434;-76
2023/08/11 09:50:03;;;;;;;1.98;1.20;;;25.20;86.70;;;;;;5048052;28;20059;-76
2023/08/11 09:52:33;;;;;;;1.05;0.65;;;25.20;87.30;;;;;;5047102;28;20028;-76
2023/08/11 09:54:59;;;;;;;2.25;1.58;;;25.30;87.50;;;;;;5053356;28;20040;-78
2023/08/11 09:57:26;;;;;;;1.83;1.10;;;25.60;86.40;;;;;;5041357;28;20029;-77
2023/08/11 09:59:54;;;;;;;2.30;0.90;;;25.70;86.20;;;;;;5050288;28;20063;-77
2023/08/11 10:02:24;;;;;;;4.20;1.65;;;25.70;85.70;;;;;;5049364;28;20376;-77
2023/08/11 10:04:58;;;;;;;2.65;0.95;;;25.80;86.20;;;;;;5039802;28;20079;-76
2023/08/11 10:07:39;;;;;;;1.52;0.90;;;25.80;85.60;;;;;;5049882;28;20485;-76
2023/08/11 10:10:12;;;;;;;2.70;1.38;;;25.50;83.60;;;;;;5051662;28;20053;-78
2023/08/11 10:12:42;;;;;;;2.08;0.68;;;25.50;84.60;;;;;;5042241;28;20364;-76
2023/08/11 10:15:09;;;;;;;3.17;0.85;;;25.60;85.40;;;;;;5049138;28;20560;-75
2023/08/11 10:17:36;;;;;;;2.15;1.10;;;25.90;84.80;;;;;;5048443;28;20036;-75
2023/08/11 10:20:04;;;;;;;1.85;0.73;;;26.10;83.90;;;;;;5046206;28;20434;-74
2023/08/11 10:22:32;;;;;;;3.42;0.65;;;26.30;84.30;;;;;;5048937;28;20033;-75
2023/08/11 10:24:58;;;;;;;1.63;0.85;;;26.40;82.10;;;;;;5049883;28;20147;-76
2023/08/11 10:27:24;;;;;;;0.68;0.47;;;26.40;82.60;;;;;;5047298;28;20041;-76
2023/08/11 10:29:52;;;;;;;1.27;0.55;;;26.50;82.40;;;;;;5051207;28;20107;-76
2023/08/11 10:32:17;;;;;;;0.73;0.40;;;26.40;80.50;;;;;;5040998;28;20398;-77
2023/08/11 10:34:43;;;;;;;2.00;0.82;;;26.30;82.30;;;;;;5053952;28;20103;-75
2023/08/11 10:37:09;;;;;;;1.95;1.30;;;26.50;81.30;;;;;;5049769;28;20029;-76
2023/08/11 10:39:36;;;;;;;2.97;1.92;;;26.60;81.70;;;;;;5050010;28;20024;-75
2023/08/11 10:42:03;;;;;;;1.02;0.75;;;26.70;81.60;;;;;;5051573;28;20052;-76
2023/08/11 10:44:29;;;;;;;1.63;0.70;;;26.60;80.80;;;;;;5050440;28;20021;-76
2023/08/11 10:46:59;;;;;;;1.83;1.00;;;26.50;80.80;;;;;;5056707;28;20021;-76
2023/08/11 10:49:33;;;;;;;3.20;0.70;;;26.50;80.30;;;;;;5050528;28;20040;-75
2023/08/11 10:52:01;;;;;;;1.23;0.80;;;26.50;81.00;;;;;;5049241;28;20049;-79
2023/08/11 10:54:26;;;;;;;1.95;0.93;;;26.60;81.40;;;;;;5047946;28;20029;-77
2023/08/11 10:56:53;;;;;;;1.00;0.50;;;26.70;80.80;;;;;;5050058;28;20540;-78
2023/08/11 10:59:24;;;;;;;1.02;0.70;;;26.70;80.80;;;;;;5050447;28;20029;-78
2023/08/11 11:01:54;;;;;;;3.35;1.30;;;26.70;80.90;;;;;;5050991;28;20170;-77
2023/08/11 11:04:22;;;;;;;2.30;0.88;;;26.90;80.20;;;;;;5051176;28;20103;-77
2023/08/11 11:06:50;;;;;;;1.13;0.60;;;27.10;81.00;;;;;;5045405;28;20029;-78
2023/08/11 11:09:16;;;;;;;12.90;8.32;;;27.20;79.30;;;;;;5048348;28;20036;-79
2023/08/11 11:11:44;;;;;;;1.90;1.25;;;27.30;80.10;;;;;;5043432;28;20021;-79
2023/08/11 11:14:11;;;;;;;1.17;0.80;;;27.50;79.50;;;;;;5047478;28;20040;-79
2023/08/11 11:16:37;;;;;;;0.52;0.50;;;27.60;78.50;;;;;;5058769;28;20413;-78
2023/08/11 11:19:05;;;;;;;4.47;0.93;;;27.40;78.20;;;;;;5049460;28;20029;-79
2023/08/11 11:21:32;;;;;;;2.55;0.85;;;27.30;77.90;;;;;;5054502;28;20037;-78
2023/08/11 11:23:57;;;;;;;1.52;0.60;;;27.40;78.30;;;;;;5056476;28;20025;-79
2023/08/11 11:26:32;;;;;;;2.13;1.33;;;27.60;78.20;;;;;;5057528;28;20036;-79
2023/08/11 11:29:00;;;;;;;2.45;1.10;;;27.70;78.90;;;;;;5050216;28;20036;-77
2023/08/11 11:31:31;;;;;;;3.17;1.20;;;27.90;77.90;;;;;;5047855;28;20025;-77
2023/08/11 11:33:56;;;;;;;1.45;0.80;;;28.10;78.40;;;;;;5049237;28;20449;-78
2023/08/11 11:36:23;;;;;;;2.25;0.82;;;28.20;78.60;;;;;;5047898;28;20021;-77
2023/08/11 11:38:49;;;;;;;1.17;0.52;;;28.30;75.70;;;;;;5057179;28;20487;-77
2023/08/11 11:41:19;;;;;;;1.17;0.60;;;28.10;76.60;;;;;;5048464;28;20035;-78
2023/08/11 11:43:47;;;;;;;2.85;0.50;;;28.00;75.10;;;;;;5048518;28;20108;-78
2023/08/11 11:46:14;;;;;;;4.88;0.60;;;28.00;76.10;;;;;;5051181;28;20029;-78
2023/08/11 11:48:48;;;;;;;1.92;0.50;;;27.90;76.50;;;;;;5052938;28;20021;-78
2023/08/11 11:51:15;;;;;;;2.35;0.82;;;28.00;75.30;;;;;;5053846;28;20052;-79
2023/08/11 11:53:42;;;;;;;2.97;0.95;;;27.90;75.20;;;;;;5046694;28;20025;-79
2023/08/11 11:56:12;;;;;;;2.78;1.23;;;28.00;75.20;;;;;;5057017;28;20364;-77
2023/08/11 11:58:38;;;;;;;3.13;0.85;;;28.10;74.90;;;;;;5055148;28;20043;-79
2023/08/11 12:01:13;;;;;;;2.20;0.85;;;28.10;75.00;;;;;;5052081;28;20059;-78
2023/08/11 12:03:39;;;;;;;2.22;0.40;;;28.20;74.80;;;;;;5045061;28;20087;-78
2023/08/11 12:06:06;;;;;;;3.67;1.20;;;28.20;74.40;;;;;;5047021;28;20029;-78
2023/08/11 12:08:34;;;;;;;4.05;0.82;;;28.20;75.10;;;;;;5046691;28;20048;-78
2023/08/11 12:11:00;;;;;;;2.15;0.70;;;28.20;74.60;;;;;;5053645;28;20044;-77
2023/08/11 12:13:26;;;;;;;2.70;1.00;;;28.30;74.80;;;;;;5056140;28;20025;-77
2023/08/11 12:15:52;;;;;;;2.67;0.88;;;28.40;75.20;;;;;;5057058;28;20050;-78
2023/08/11 12:18:19;;;;;;;4.75;1.13;;;28.70;74.80;;;;;;5057215;28;20037;-75
2023/08/11 12:20:44;;;;;;;4.28;2.90;;;28.70;74.40;;;;;;5055219;28;20496;-75
2023/08/11 12:23:10;;;;;;;4.28;0.95;;;28.60;73.50;;;;;;5051878;28;20029;-75
2023/08/11 12:25:35;;;;;;;2.05;0.63;;;28.60;72.50;;;;;;5053741;28;20158;-76
2023/08/11 12:28:02;;;;;;;1.55;0.77;;;28.60;73.70;;;;;;5053558;28;20032;-75
2023/08/11 12:30:28;;;;;;;4.72;0.57;;;28.70;73.50;;;;;;5050213;28;20574;-75
2023/08/11 12:32:54;;;;;;;1.33;0.52;;;28.70;71.80;;;;;;5058718;28;20120;-76
2023/08/11 12:35:20;;;;;;;3.00;0.50;;;28.60;72.80;;;;;;5051441;28;20384;-76
2023/08/11 12:37:46;;;;;;;1.35;0.50;;;28.80;72.50;;;;;;5052312;28;20029;-76
2023/08/11 12:40:12;;;;;;;3.78;0.60;;;28.90;73.30;;;;;;5056658;28;20033;-75